Time;durP1;ratioP1;P1;durP2;ratioP2;P2;SDS_P1;SDS_P2;PMS_P1;PMS_P2;Temp;Humidity;BMP_temperature;BMP_pressure;BME280_temperature;BME280_humidity;BME280_pressure;Samples;Min_cycle;Max_cycle;Signal;HPM_P1;HPM_P2
2022/03/13 00:05:20;;;;;;;12.23;3.95;;;;;;;;;;20915871;28;20087;-60
2022/03/13 00:15:26;;;;;;;14.90;3.83;;;;;;;;;;20914213;28;20527;-59
2022/03/13 00:25:27;;;;;;;8.73;2.80;;;;;;;;;;20913273;28;20056;-59
2022/03/13 00:35:29;;;;;;;8.05;2.88;;;;;;;;;;20914373;28;20075;-60
2022/03/13 00:45:31;;;;;;;7.32;2.72;;;;;;;;;;20913055;28;20049;-66
2022/03/13 00:55:33;;;;;;;9.70;2.90;;;;;;;;;;20922376;28;20040;-73
2022/03/13 01:05:35;;;;;;;8.88;3.25;;;;;;;;;;20929162;28;20084;-66
2022/03/13 01:15:38;;;;;;;8.27;3.58;;;;;;;;;;20944146;28;20049;-75
2022/03/13 01:25:40;;;;;;;10.00;4.38;;;;;;;;;;20927866;28;20143;-69
2022/03/13 01:35:41;;;;;;;10.82;4.25;;;;;;;;;;20932765;28;20085;-72
2022/03/13 01:45:43;;;;;;;9.30;4.40;;;;;;;;;;20932664;28;20084;-73
2022/03/13 01:55:45;;;;;;;10.77;5.38;;;;;;;;;;20924518;28;20040;-60
2022/03/13 02:05:48;;;;;;;8.32;3.80;;;;;;;;;;20922848;28;20088;-75
2022/03/13 02:15:50;;;;;;;3.67;1.60;;;;;;;;;;20924351;28;20091;-75
2022/03/13 02:25:56;;;;;;;2.25;0.80;;;;;;;;;;20922800;28;20460;-74
2022/03/13 02:36:12;;;;;;;1.77;0.50;;;;;;;;;;20922985;28;20045;-74
2022/03/13 02:46:19;;;;;;;1.70;0.60;;;;;;;;;;20922819;28;20470;-73
2022/03/13 02:56:21;;;;;;;1.95;1.02;;;;;;;;;;20920677;28;20057;-70
2022/03/13 03:06:24;;;;;;;1.08;0.60;;;;;;;;;;20919742;28;20409;-74
2022/03/13 03:16:26;;;;;;;2.13;1.10;;;;;;;;;;20919157;28;20072;-58
2022/03/13 03:26:29;;;;;;;1.25;0.50;;;;;;;;;;20917281;28;20061;-60
2022/03/13 03:36:40;;;;;;;2.33;0.80;;;;;;;;;;20915741;28;20443;-59
2022/03/13 03:46:46;;;;;;;2.08;0.70;;;;;;;;;;20916583;28;20522;-59
2022/03/13 03:56:53;;;;;;;2.15;1.02;;;;;;;;;;20915574;28;20045;-61
2022/03/13 04:06:58;;;;;;;2.50;0.70;;;;;;;;;;20916303;28;20477;-72
2022/03/13 04:17:01;;;;;;;1.17;0.60;;;;;;;;;;20915401;28;20085;-61
2022/03/13 04:27:05;;;;;;;2.07;0.80;;;;;;;;;;20913688;28;20085;-72
2022/03/13 04:37:18;;;;;;;2.88;0.85;;;;;;;;;;20913793;28;20083;-75
2022/03/13 04:47:23;;;;;;;1.88;0.90;;;;;;;;;;20913264;28;20049;-60
2022/03/13 04:57:30;;;;;;;1.58;0.75;;;;;;;;;;20914359;28;20136;-62
2022/03/13 05:07:38;;;;;;;2.25;1.00;;;;;;;;;;20912617;28;20049;-59
2022/03/13 05:17:40;;;;;;;1.60;0.70;;;;;;;;;;20911778;28;20082;-72
2022/03/13 05:27:42;;;;;;;4.13;1.00;;;;;;;;;;20911297;28;20500;-62
2022/03/13 05:37:44;;;;;;;2.85;1.40;;;;;;;;;;20914064;28;20170;-69
2022/03/13 05:47:47;;;;;;;2.03;0.90;;;;;;;;;;20929993;28;20108;-70
2022/03/13 05:57:50;;;;;;;1.92;1.00;;;;;;;;;;20933487;28;20045;-60
2022/03/13 06:07:53;;;;;;;4.25;1.33;;;;;;;;;;20929266;28;20071;-60
2022/03/13 06:17:58;;;;;;;3.33;1.02;;;;;;;;;;20938038;28;20092;-75
2022/03/13 06:28:00;;;;;;;2.47;1.15;;;;;;;;;;20939086;28;20049;-73
2022/03/13 06:38:03;;;;;;;5.32;1.58;;;;;;;;;;20934894;28;20481;-74
2022/03/13 06:48:06;;;;;;;2.75;1.42;;;;;;;;;;20933356;28;20061;-61
2022/03/13 06:58:24;;;;;;;8.15;1.50;;;;;;;;;;20943238;28;20056;-75
2022/03/13 07:08:26;;;;;;;5.45;1.30;;;;;;;;;;20929526;28;20136;-74
2022/03/13 07:18:29;;;;;;;6.35;1.40;;;;;;;;;;20936289;28;20057;-70
2022/03/13 07:28:31;;;;;;;4.10;1.30;;;;;;;;;;20926959;28;20053;-61
2022/03/13 07:38:32;;;;;;;7.28;1.67;;;;;;;;;;20915969;28;20080;-60
2022/03/13 07:48:34;;;;;;;5.88;1.67;;;;;;;;;;20931863;28;20080;-60
2022/03/13 07:58:35;;;;;;;3.38;1.67;;;;;;;;;;20920331;28;20091;-74
2022/03/13 08:08:37;;;;;;;4.25;1.15;;;;;;;;;;20921657;28;20059;-64
2022/03/13 08:18:39;;;;;;;3.53;1.40;;;;;;;;;;20920035;28;20091;-68
2022/03/13 08:28:41;;;;;;;3.42;1.50;;;;;;;;;;20917707;28;20073;-59
2022/03/13 08:38:42;;;;;;;7.65;1.88;;;;;;;;;;20917708;28;20049;-58
2022/03/13 08:48:44;;;;;;;3.35;1.60;;;;;;;;;;20919502;28;20477;-71
2022/03/13 08:58:47;;;;;;;4.65;1.70;;;;;;;;;;20918275;28;20081;-60
2022/03/13 09:08:49;;;;;;;6.05;1.50;;;;;;;;;;20922351;28;20075;-61
2022/03/13 09:18:51;;;;;;;4.63;1.38;;;;;;;;;;20933063;28;20049;-75
2022/03/13 09:28:52;;;;;;;5.10;1.50;;;;;;;;;;20928908;28;20049;-75
2022/03/13 09:38:54;;;;;;;3.20;0.90;;;;;;;;;;20926063;28;20053;-77
2022/03/13 09:48:56;;;;;;;6.13;1.25;;;;;;;;;;20926186;28;20117;-74
2022/03/13 09:58:58;;;;;;;2.78;1.35;;;;;;;;;;20925282;28;20060;-74
2022/03/13 10:08:59;;;;;;;6.82;2.40;;;;;;;;;;20931566;28;20100;-76
2022/03/13 10:19:18;;;;;;;4.22;1.30;;;;;;;;;;20932061;28;20084;-65
2022/03/13 10:29:32;;;;;;;4.80;1.33;;;;;;;;;;20922312;28;20095;-70
2022/03/13 10:39:34;;;;;;;3.70;1.10;;;;;;;;;;20921913;28;20049;-60
2022/03/13 10:49:40;;;;;;;2.83;1.17;;;;;;;;;;20921832;28;20454;-60
2022/03/13 10:59:43;;;;;;;1.55;0.68;;;;;;;;;;20921498;28;20045;-70
2022/03/13 11:09:46;;;;;;;3.38;0.82;;;;;;;;;;20919551;28;20056;-60
2022/03/13 11:19:49;;;;;;;4.47;1.30;;;;;;;;;;20917336;28;20084;-60
2022/03/13 11:29:53;;;;;;;3.20;1.63;;;;;;;;;;20917953;28;20398;-66
2022/03/13 11:40:05;;;;;;;2.42;1.10;;;;;;;;;;20916655;28;20405;-62
2022/03/13 11:50:10;;;;;;;2.90;1.08;;;;;;;;;;20915396;28;20048;-61
2022/03/13 12:00:11;;;;;;;3.35;1.15;;;;;;;;;;20915089;28;20099;-62
2022/03/13 12:10:37;;;;;;;4.55;1.38;;;;;;;;;;20914674;28;20060;-70
2022/03/13 12:20:38;;;;;;;3.65;1.15;;;;;;;;;;20913608;28;20056;-72
2022/03/13 12:30:39;;;;;;;3.20;1.00;;;;;;;;;;20913234;28;20053;-69
2022/03/13 12:40:48;;;;;;;2.70;1.10;;;;;;;;;;20912821;28;20077;-70
2022/03/13 12:50:49;;;;;;;3.67;1.20;;;;;;;;;;20927232;28;20098;-73
2022/03/13 13:00:51;;;;;;;2.80;1.08;;;;;;;;;;20911857;28;20421;-63
2022/03/13 13:10:59;;;;;;;3.75;1.00;;;;;;;;;;20911592;28;20078;-72
2022/03/13 13:21:09;;;;;;;3.60;1.20;;;;;;;;;;20911061;28;20057;-66
2022/03/13 13:31:14;;;;;;;3.42;1.15;;;;;;;;;;20912068;28;20056;-65
2022/03/13 13:41:23;;;;;;;3.97;1.50;;;;;;;;;;20910611;28;20096;-62
2022/03/13 13:51:31;;;;;;;2.80;1.50;;;;;;;;;;20909704;28;20549;-61
2022/03/13 14:01:35;;;;;;;5.57;3.03;;;;;;;;;;20911397;28;20491;-74
2022/03/13 14:11:40;;;;;;;8.43;5.70;;;;;;;;;;20926491;28;20088;-59
2022/03/13 14:21:42;;;;;;;;;;;;;;;;;;20924316;28;20481;-72
2022/03/13 14:31:44;;;;;;;3.30;1.00;;;;;;;;;;20922241;28;19920;-61
2022/03/13 14:41:47;;;;;;;3.75;1.92;;;;;;;;;;20921738;28;20041;-70
2022/03/13 14:51:49;;;;;;;3.67;1.63;;;;;;;;;;20921109;28;20105;-61
2022/03/13 15:01:51;;;;;;;3.15;1.38;;;;;;;;;;20921200;28;20454;-63
2022/03/13 15:11:53;;;;;;;2.60;0.90;;;;;;;;;;20917432;28;20512;-59
2022/03/13 15:21:55;;;;;;;5.07;1.48;;;;;;;;;;20918721;28;20121;-60
2022/03/13 15:31:57;;;;;;;5.05;1.67;;;;;;;;;;20916678;28;20060;-65
2022/03/13 15:41:59;;;;;;;3.13;1.30;;;;;;;;;;20917818;28;20044;-65
2022/03/13 15:52:04;;;;;;;4.45;1.58;;;;;;;;;;20917059;28;20056;-61
2022/03/13 16:02:06;;;;;;;4.40;1.50;;;;;;;;;;20914792;28;20094;-67
2022/03/13 16:12:12;;;;;;;2.72;1.10;;;;;;;;;;20914494;28;20523;-64
2022/03/13 16:22:14;;;;;;;2.50;1.38;;;;;;;;;;20914445;28;20114;-70
2022/03/13 16:32:17;;;;;;;3.53;1.23;;;;;;;;;;20912643;28;20508;-65
2022/03/13 16:42:19;;;;;;;3.40;1.20;;;;;;;;;;20913018;28;20053;-70
2022/03/13 16:52:21;;;;;;;4.25;1.50;;;;;;;;;;20911823;28;20044;-63
2022/03/13 17:02:23;;;;;;;3.65;1.50;;;;;;;;;;20911363;28;20136;-58
2022/03/13 17:12:25;;;;;;;3.80;1.60;;;;;;;;;;20911153;28;20088;-61
2022/03/13 17:22:27;;;;;;;3.50;1.95;;;;;;;;;;20911844;28;20115;-64
2022/03/13 17:32:29;;;;;;;3.20;2.00;;;;;;;;;;20910279;28;20148;-60
2022/03/13 17:42:31;;;;;;;3.33;1.50;;;;;;;;;;20924663;28;20056;-63
2022/03/13 17:52:33;;;;;;;4.40;1.80;;;;;;;;;;20925404;28;20095;-61
2022/03/13 18:02:35;;;;;;;5.75;2.90;;;;;;;;;;20924863;28;20080;-66
2022/03/13 18:12:37;;;;;;;6.85;2.90;;;;;;;;;;20923647;28;20056;-63
2022/03/13 18:22:39;;;;;;;13.00;7.07;;;;;;;;;;20923372;28;20056;-63
2022/03/13 18:32:41;;;;;;;5.05;2.83;;;;;;;;;;20921593;28;20102;-72
2022/03/13 18:42:43;;;;;;;6.28;3.00;;;;;;;;;;20922543;28;20099;-72
2022/03/13 18:52:45;;;;;;;34.13;25.90;;;;;;;;;;20920656;28;20109;-75
2022/03/13 19:02:47;;;;;;;9.23;4.82;;;;;;;;;;20919910;28;20053;-71
2022/03/13 19:12:49;;;;;;;12.13;6.43;;;;;;;;;;20922738;28;20060;-71
2022/03/13 19:22:55;;;;;;;8.65;2.97;;;;;;;;;;20934658;28;20090;-62
2022/03/13 19:32:57;;;;;;;5.47;2.58;;;;;;;;;;20918264;28;20067;-73
2022/03/13 19:42:59;;;;;;;6.78;4.03;;;;;;;;;;20917057;28;20045;-71
2022/03/13 19:53:01;;;;;;;6.68;3.80;;;;;;;;;;20915475;28;20075;-61
2022/03/13 20:03:03;;;;;;;10.75;3.90;;;;;;;;;;20914332;28;20049;-69
2022/03/13 20:13:05;;;;;;;4.50;3.60;;;;;;;;;;20915087;28;20049;-61
2022/03/13 20:23:08;;;;;;;9.38;4.45;;;;;;;;;;20913866;28;20075;-64
2022/03/13 20:33:11;;;;;;;8.13;3.70;;;;;;;;;;20912849;28;20086;-62
2022/03/13 20:43:13;;;;;;;4.82;3.10;;;;;;;;;;20912916;28;20059;-68
2022/03/13 20:53:16;;;;;;;6.75;2.85;;;;;;;;;;20913407;28;20559;-70
2022/03/13 21:03:18;;;;;;;5.60;2.75;;;;;;;;;;20910679;28;20045;-68
2022/03/13 21:13:20;;;;;;;7.10;2.88;;;;;;;;;;20918868;28;20088;-70
2022/03/13 21:23:22;;;;;;;9.05;3.85;;;;;;;;;;20927793;28;20497;-69
2022/03/13 21:33:24;;;;;;;6.07;3.35;;;;;;;;;;20930920;28;20099;-60
2022/03/13 21:43:27;;;;;;;5.15;3.00;;;;;;;;;;20926472;28;20412;-70
2022/03/13 21:53:29;;;;;;;4.28;2.45;;;;;;;;;;20925709;28;20098;-62
2022/03/13 22:03:31;;;;;;;4.85;2.88;;;;;;;;;;20926044;28;20430;-69
2022/03/13 22:13:36;;;;;;;3.75;2.00;;;;;;;;;;20924412;28;20140;-65
2022/03/13 22:23:38;;;;;;;3.67;1.95;;;;;;;;;;20923355;28;20526;-69
2022/03/13 22:33:40;;;;;;;6.50;2.78;;;;;;;;;;20922569;28;20055;-70
2022/03/13 22:43:42;;;;;;;5.38;2.20;;;;;;;;;;20920888;28;20489;-70
2022/03/13 22:53:45;;;;;;;4.85;2.47;;;;;;;;;;20921063;28;20451;-66
2022/03/13 23:03:47;;;;;;;4.15;2.75;;;;;;;;;;20920736;28;20129;-71
2022/03/13 23:13:52;;;;;;;10.57;2.88;;;;;;;;;;20919701;28;20072;-68
2022/03/13 23:23:54;;;;;;;4.63;2.83;;;;;;;;;;20918584;28;20056;-69
2022/03/13 23:33:57;;;;;;;7.22;2.42;;;;;;;;;;20916548;28;20430;-70
2022/03/13 23:43:59;;;;;;;4.57;2.40;;;;;;;;;;20917230;28;20489;-70
2022/03/13 23:54:06;;;;;;;3.55;2.08;;;;;;;;;;20916820;28;20048;-67
